createdAt,value
2023-03-10T00:01:14.873Z,19.63
2023-03-10T00:03:45.338Z,19.63
2023-03-10T00:06:15.819Z,19.62
2023-03-10T00:08:46.323Z,19.61
2023-03-10T00:11:14.616Z,19.60
2023-03-10T00:13:43.137Z,19.61
2023-03-10T00:16:18.607Z,19.58
2023-03-10T00:18:48.172Z,19.59
2023-03-10T00:21:21.472Z,19.58
2023-03-10T00:23:49.695Z,19.59
2023-03-10T00:26:19.654Z,19.59
2023-03-10T00:28:48.405Z,19.61
2023-03-10T00:31:19.878Z,19.61
2023-03-10T00:33:49.631Z,19.59
2023-03-10T00:36:19.788Z,19.59
2023-03-10T00:38:48.937Z,19.58
2023-03-10T00:41:21.491Z,19.59
2023-03-10T00:43:49.820Z,19.57
2023-03-10T00:46:18.243Z,19.57
2023-03-10T00:48:46.662Z,19.57
2023-03-10T00:51:16.502Z,19.56
2023-03-10T00:53:44.528Z,19.55
2023-03-10T00:56:14.840Z,19.53
2023-03-10T00:58:44.240Z,19.52
2023-03-10T01:01:15.051Z,19.51
2023-03-10T01:03:43.269Z,19.51
2023-03-10T01:06:11.275Z,19.49
2023-03-10T01:08:40.875Z,19.49
2023-03-10T01:11:08.886Z,19.50
2023-03-10T01:13:37.596Z,19.49
2023-03-10T01:16:06.956Z,19.49
2023-03-10T01:18:37.439Z,19.49
2023-03-10T01:21:06.225Z,19.48
2023-03-10T01:23:34.584Z,19.47
2023-03-10T01:26:03.998Z,19.47
2023-03-10T01:28:31.950Z,19.47
2023-03-10T01:30:59.983Z,19.48
2023-03-10T01:33:31.331Z,19.47
2023-03-10T01:35:59.436Z,19.46
2023-03-10T01:38:27.754Z,19.48
2023-03-10T01:40:55.770Z,19.48
2023-03-10T01:43:33.958Z,19.50
2023-03-10T01:46:42.313Z,19.51
2023-03-10T01:49:28.680Z,19.53
2023-03-10T01:52:03.236Z,19.53
2023-03-10T01:54:39.700Z,19.52
2023-03-10T01:57:08.435Z,19.53
2023-03-10T01:59:37.846Z,19.54
2023-03-10T02:02:08.660Z,19.54
2023-03-10T02:04:41.987Z,19.57
2023-03-10T02:07:10.183Z,19.58
2023-03-10T02:09:42.019Z,19.58
2023-03-10T02:12:11.705Z,19.58
2023-03-10T02:14:44.420Z,19.58
2023-03-10T02:17:17.879Z,19.57
2023-03-10T02:19:59.864Z,19.56
2023-03-10T02:22:28.547Z,19.57
2023-03-10T02:25:04.802Z,19.56
2023-03-10T02:27:35.991Z,19.57
2023-03-10T02:30:08.046Z,19.56
2023-03-10T02:32:39.393Z,19.55
2023-03-10T02:35:07.880Z,19.54
2023-03-10T02:37:36.898Z,19.54
2023-03-10T02:40:23.721Z,19.53
2023-03-10T02:42:53.520Z,19.53
2023-03-10T02:45:21.580Z,19.53
2023-03-10T02:47:49.553Z,19.53
2023-03-10T02:50:19.589Z,19.51
2023-03-10T02:52:54.438Z,19.51
2023-03-10T02:55:22.605Z,19.50
2023-03-10T02:57:51.993Z,19.51
2023-03-10T03:00:20.425Z,19.50
2023-03-10T03:02:48.434Z,19.49
2023-03-10T03:05:16.544Z,19.49
2023-03-10T03:07:44.408Z,19.47
2023-03-10T03:10:14.758Z,19.47
2023-03-10T03:12:42.706Z,19.48
2023-03-10T03:15:12.798Z,19.48
2023-03-10T03:17:40.757Z,19.48
2023-03-10T03:20:14.534Z,19.46
2023-03-10T03:22:42.725Z,19.45
2023-03-10T03:25:11.774Z,19.44
2023-03-10T03:27:39.796Z,19.45
2023-03-10T03:30:11.154Z,19.45
2023-03-10T03:32:40.500Z,19.45
2023-03-10T03:35:16.058Z,19.44
2023-03-10T03:37:44.426Z,19.41
2023-03-10T03:40:15.837Z,19.42
2023-03-10T03:42:46.305Z,19.40
2023-03-10T03:45:15.936Z,19.40
2023-03-10T03:47:45.689Z,19.38
2023-03-10T03:50:17.436Z,19.39
2023-03-10T03:52:46.383Z,19.37
2023-03-10T03:55:16.179Z,19.37
2023-03-10T03:57:45.496Z,19.36
2023-03-10T04:00:17.665Z,19.37
2023-03-10T04:02:47.311Z,19.37
2023-03-10T04:05:15.345Z,19.34
2023-03-10T04:07:44.182Z,19.34
2023-03-10T04:10:15.247Z,19.35
2023-03-10T04:12:43.209Z,19.34
2023-03-10T04:15:12.022Z,19.35
2023-03-10T04:17:40.382Z,19.34
2023-03-10T04:20:13.360Z,19.36
2023-03-10T04:22:41.603Z,19.37
2023-03-10T04:25:10.630Z,19.39
2023-03-10T04:27:38.572Z,19.41
2023-03-10T04:30:07.928Z,19.41
2023-03-10T04:32:36.182Z,19.42
2023-03-10T04:35:04.345Z,19.43
2023-03-10T04:37:33.678Z,19.42
2023-03-10T04:40:02.421Z,19.42
2023-03-10T04:42:30.364Z,19.42
2023-03-10T04:45:00.731Z,19.40
2023-03-10T04:47:28.650Z,19.41
2023-03-10T04:49:56.551Z,19.40
2023-03-10T04:52:24.475Z,19.40
2023-03-10T04:54:53.808Z,19.40
2023-03-10T04:57:21.914Z,19.41
2023-03-10T04:59:49.902Z,19.39
2023-03-10T05:02:20.548Z,19.38
2023-03-10T05:04:48.548Z,19.38
2023-03-10T05:07:16.529Z,19.38
2023-03-10T05:09:44.556Z,19.37
2023-03-10T05:12:13.901Z,19.38
2023-03-10T05:14:42.135Z,19.36
2023-03-10T05:17:10.388Z,19.36
2023-03-10T05:19:38.572Z,19.34
2023-03-10T05:22:11.436Z,19.33
2023-03-10T05:24:39.704Z,19.34
2023-03-10T05:27:08.365Z,19.33
2023-03-10T05:29:39.340Z,19.34
2023-03-10T05:32:08.194Z,19.34
2023-03-10T05:34:36.181Z,19.34
2023-03-10T05:37:04.175Z,19.36
2023-03-10T05:39:32.212Z,19.36
2023-03-10T05:42:00.181Z,19.37
2023-03-10T05:44:28.206Z,19.37
2023-03-10T05:46:57.629Z,19.36
2023-03-10T05:49:25.617Z,19.37
2023-03-10T05:51:53.883Z,19.37
2023-03-10T05:54:22.030Z,19.36
2023-03-10T05:56:52.903Z,19.37
2023-03-10T05:59:21.279Z,19.36
2023-03-10T06:01:49.335Z,19.37
2023-03-10T06:04:18.808Z,19.35
2023-03-10T06:06:46.853Z,19.34
2023-03-10T06:09:14.778Z,19.34
2023-03-10T06:11:42.860Z,19.33
2023-03-10T06:14:11.259Z,19.31
2023-03-10T06:16:39.252Z,19.32
2023-03-10T06:19:07.232Z,19.32
2023-03-10T06:21:36.556Z,19.32
2023-03-10T06:24:04.637Z,19.33
2023-03-10T06:26:32.679Z,19.32
2023-03-10T06:29:00.684Z,19.32
2023-03-10T06:31:29.268Z,19.32
2023-03-10T06:33:57.558Z,19.32
2023-03-10T06:36:27.197Z,19.32
2023-03-10T06:38:59.453Z,19.32
2023-03-10T06:41:28.054Z,19.34
2023-03-10T06:43:56.175Z,19.35
2023-03-10T06:46:25.590Z,19.34
2023-03-10T06:48:53.565Z,19.35
2023-03-10T06:51:21.751Z,19.36
2023-03-10T06:53:50.769Z,19.34
2023-03-10T06:56:22.413Z,19.36
2023-03-10T06:58:50.516Z,19.38
2023-03-10T07:01:24.122Z,19.39
2023-03-10T07:03:52.301Z,19.38
2023-03-10T07:06:23.664Z,19.39
2023-03-10T07:08:52.607Z,19.41
2023-03-10T07:11:26.692Z,19.42
2023-03-10T07:13:55.111Z,19.42
2023-03-10T07:16:23.308Z,19.43
2023-03-10T07:18:51.494Z,19.43
2023-03-10T07:21:21.523Z,19.44
2023-03-10T07:23:49.701Z,19.45
2023-03-10T07:26:19.636Z,19.44
2023-03-10T07:28:49.030Z,19.45
2023-03-10T07:31:17.797Z,19.46
2023-03-10T07:33:45.790Z,19.45
2023-03-10T07:36:16.637Z,19.46
2023-03-10T07:38:44.992Z,19.46
2023-03-10T07:41:16.701Z,19.47
2023-03-10T07:43:44.864Z,19.48
2023-03-10T07:46:16.103Z,19.49
2023-03-10T07:48:44.943Z,19.49
2023-03-10T07:51:13.548Z,19.50
2023-03-10T07:53:41.512Z,19.51
2023-03-10T07:56:12.364Z,19.50
2023-03-10T07:58:40.863Z,19.52
2023-03-10T08:01:14.911Z,19.52
2023-03-10T08:03:44.406Z,19.54
2023-03-10T08:06:18.274Z,19.54
2023-03-10T08:08:46.222Z,19.54
2023-03-10T08:11:14.446Z,19.55
2023-03-10T08:13:45.380Z,19.57
2023-03-10T08:16:13.865Z,19.56
2023-03-10T08:18:42.240Z,19.58
2023-03-10T08:21:11.875Z,19.59
2023-03-10T08:23:40.437Z,19.61
2023-03-10T08:26:10.653Z,19.62
2023-03-10T08:28:39.037Z,19.65
2023-03-10T08:31:11.201Z,19.65
2023-03-10T08:33:39.929Z,19.66
2023-03-10T08:36:10.476Z,19.68
2023-03-10T08:38:43.882Z,19.71
2023-03-10T08:41:14.604Z,19.70
2023-03-10T08:43:43.556Z,19.72
2023-03-10T08:46:12.417Z,19.73
2023-03-10T08:48:42.881Z,19.73
2023-03-10T08:51:15.113Z,19.73
2023-03-10T08:53:47.176Z,19.75
2023-03-10T08:56:16.181Z,19.78
2023-03-10T09:03:31.618Z,19.80
2023-03-10T09:06:03.733Z,19.80
2023-03-10T09:08:31.812Z,19.81
2023-03-10T09:11:01.270Z,19.81
2023-03-10T09:13:29.365Z,19.83
2023-03-10T09:16:00.399Z,19.83
2023-03-10T09:18:28.715Z,19.85
2023-03-10T09:20:56.676Z,19.86
2023-03-10T09:23:24.769Z,19.88
2023-03-10T09:25:53.000Z,19.88
2023-03-10T09:28:22.595Z,19.89
2023-03-10T09:30:51.123Z,19.91
2023-03-10T09:33:21.926Z,19.92
2023-03-10T09:36:05.885Z,19.93
2023-03-10T09:38:37.429Z,19.93
2023-03-10T09:41:18.928Z,19.94
2023-03-10T09:44:00.367Z,19.96
2023-03-10T09:46:39.534Z,19.98
2023-03-10T09:49:16.320Z,19.99
2023-03-10T09:51:49.408Z,19.99
2023-03-10T09:54:33.625Z,20.02
2023-03-10T09:57:04.327Z,20.02
2023-03-10T09:59:38.601Z,20.03
2023-03-10T10:02:17.287Z,20.03
2023-03-10T10:04:45.798Z,20.04
2023-03-10T10:07:17.636Z,20.06
2023-03-10T10:09:53.327Z,20.06
2023-03-10T10:12:24.882Z,20.07
2023-03-10T10:14:57.867Z,20.08
2023-03-10T10:17:47.314Z,20.09
2023-03-10T10:20:24.016Z,20.10
2023-03-10T10:22:52.098Z,20.10
2023-03-10T10:25:22.928Z,20.10
2023-03-10T10:27:53.769Z,20.10
2023-03-10T10:30:33.273Z,20.11
2023-03-10T10:33:03.115Z,20.07
2023-03-10T10:35:35.726Z,20.07
2023-03-10T10:38:06.834Z,19.96
2023-03-10T10:40:37.368Z,19.88
2023-03-10T10:43:07.703Z,19.93
2023-03-10T10:45:39.149Z,19.96
2023-03-10T10:48:07.682Z,19.91
2023-03-10T10:50:38.664Z,19.95
2023-03-10T10:53:20.763Z,19.97
2023-03-10T10:55:59.885Z,19.99
2023-03-10T10:58:32.482Z,20.00
2023-03-10T11:01:03.406Z,20.01
2023-03-10T11:03:33.656Z,20.03
2023-03-10T11:06:03.078Z,20.03
2023-03-10T11:08:39.364Z,20.05
2023-03-10T11:11:22.113Z,20.05
2023-03-10T11:14:12.186Z,20.06
2023-03-10T11:16:51.180Z,20.06
2023-03-10T11:19:26.427Z,20.04
2023-03-10T11:22:02.173Z,20.08
2023-03-10T11:24:39.733Z,20.07
2023-03-10T11:27:18.800Z,20.07
2023-03-10T11:30:01.803Z,20.07
2023-03-10T11:32:38.123Z,20.06
2023-03-10T11:35:20.527Z,20.07
2023-03-10T11:37:51.937Z,20.08
2023-03-10T11:40:29.091Z,20.06
2023-03-10T11:43:03.451Z,20.07
2023-03-10T11:45:39.384Z,20.05
2023-03-10T11:48:26.750Z,20.07
2023-03-10T11:50:58.412Z,20.07
2023-03-10T11:53:34.491Z,20.06
2023-03-10T11:56:03.863Z,19.86
2023-03-10T11:58:42.475Z,19.90
2023-03-10T12:01:14.147Z,19.88
2023-03-10T12:03:50.336Z,19.92
2023-03-10T12:06:26.470Z,19.93
2023-03-10T12:08:57.439Z,19.98
2023-03-10T12:11:28.419Z,19.99
2023-03-10T12:14:00.707Z,20.00
2023-03-10T12:16:30.620Z,20.02
2023-03-10T12:19:00.284Z,20.03
2023-03-10T12:21:29.805Z,20.03
2023-03-10T12:23:59.225Z,20.03
2023-03-10T12:27:03.395Z,20.04
2023-03-10T12:29:42.791Z,20.05
2023-03-10T12:32:47.185Z,20.04
2023-03-10T12:35:51.927Z,20.05
2023-03-10T12:38:32.574Z,20.07
2023-03-10T12:41:01.734Z,20.08
2023-03-10T12:43:54.829Z,20.08
2023-03-10T12:46:28.216Z,20.10
2023-03-10T12:49:08.299Z,20.07
2023-03-10T12:51:43.718Z,20.08
2023-03-10T12:54:34.998Z,20.11
2023-03-10T12:57:10.073Z,20.10
2023-03-10T12:59:44.507Z,20.11
2023-03-10T13:02:26.782Z,20.12
2023-03-10T13:05:00.796Z,20.10
2023-03-10T13:07:31.585Z,20.11
2023-03-10T13:10:01.722Z,20.12
2023-03-10T13:12:34.511Z,20.09
2023-03-10T13:15:04.294Z,20.11
2023-03-10T13:17:33.873Z,20.11
2023-03-10T13:20:06.712Z,20.10
2023-03-10T13:22:36.393Z,20.10
2023-03-10T13:25:06.818Z,20.10
2023-03-10T13:27:35.866Z,20.11
2023-03-10T13:30:13.322Z,20.10
2023-03-10T13:32:41.489Z,20.10
2023-03-10T13:35:23.827Z,20.12
2023-03-10T13:38:12.144Z,20.12
2023-03-10T13:40:43.093Z,20.11
2023-03-10T13:43:28.502Z,20.10
2023-03-10T13:45:57.260Z,20.11
2023-03-10T13:48:27.472Z,20.10
2023-03-10T13:51:06.257Z,20.10
2023-03-10T13:53:35.657Z,20.08
2023-03-10T13:56:16.527Z,20.08
2023-03-10T13:58:45.567Z,20.08
2023-03-10T14:01:19.565Z,20.08
2023-03-10T14:03:55.349Z,20.06
2023-03-10T14:06:23.616Z,20.06
2023-03-10T14:08:53.390Z,20.07
2023-03-10T14:11:32.059Z,20.07
2023-03-10T14:14:00.869Z,20.07
2023-03-10T14:16:50.830Z,20.05
2023-03-10T14:19:48.280Z,20.04
2023-03-10T14:22:38.057Z,20.03
2023-03-10T14:25:14.618Z,20.02
2023-03-10T14:27:45.071Z,20.04
2023-03-10T14:30:25.820Z,20.02
2023-03-10T14:32:55.369Z,20.03
2023-03-10T14:35:24.623Z,20.01
2023-03-10T14:37:53.305Z,20.02
2023-03-10T14:40:25.430Z,20.02
2023-03-10T14:42:55.706Z,20.02
2023-03-10T14:45:29.589Z,20.00
2023-03-10T14:47:59.662Z,20.01
2023-03-10T14:50:29.922Z,20.02
2023-03-10T14:52:58.025Z,20.01
2023-03-10T14:55:29.890Z,20.01
2023-03-10T14:58:02.031Z,20.00
2023-03-10T15:00:30.340Z,19.99
2023-03-10T15:02:58.833Z,19.99
2023-03-10T15:05:45.413Z,19.98
2023-03-10T15:08:16.019Z,19.98
2023-03-10T15:10:48.259Z,19.96
2023-03-10T15:13:18.575Z,19.05
2023-03-10T15:15:48.080Z,19.18
2023-03-10T15:18:18.365Z,19.05
2023-03-10T15:20:46.509Z,19.06
2023-03-10T15:23:17.168Z,19.21
2023-03-10T15:25:47.436Z,19.34
2023-03-10T15:28:15.490Z,19.45
2023-03-10T15:30:43.761Z,19.49
2023-03-10T15:33:11.756Z,19.57
2023-03-10T15:35:41.031Z,19.64
2023-03-10T15:38:09.678Z,19.69
2023-03-10T15:40:40.126Z,19.71
2023-03-10T15:43:12.062Z,19.77
2023-03-10T15:45:42.541Z,19.82
2023-03-10T15:48:11.539Z,19.88
2023-03-10T15:50:42.576Z,19.94
2023-03-10T15:53:10.915Z,20.00
2023-03-10T15:55:41.435Z,20.03
2023-03-10T15:58:11.452Z,20.06
2023-03-10T16:00:39.851Z,20.09
2023-03-10T16:03:07.795Z,20.12
2023-03-10T16:05:37.008Z,20.13
2023-03-10T16:08:06.386Z,20.15
2023-03-10T16:10:35.837Z,20.13
2023-03-10T16:13:04.287Z,20.15
2023-03-10T16:15:33.748Z,20.16
2023-03-10T16:18:01.678Z,20.18
2023-03-10T16:20:29.660Z,20.21
2023-03-10T16:23:00.374Z,20.26
2023-03-10T16:25:28.433Z,20.29
2023-03-10T16:27:56.409Z,20.29
2023-03-10T16:30:24.576Z,20.28
2023-03-10T16:32:53.967Z,20.27
2023-03-10T16:35:22.068Z,20.29
2023-03-10T16:37:50.052Z,20.29
2023-03-10T16:40:18.222Z,20.27
2023-03-10T16:42:48.651Z,20.27
2023-03-10T16:45:16.682Z,20.27
2023-03-10T16:47:46.141Z,20.26
2023-03-10T16:50:15.498Z,20.27
2023-03-10T16:52:43.969Z,20.25
2023-03-10T16:55:18.369Z,20.26
2023-03-10T16:57:46.393Z,20.27
2023-03-10T17:00:15.706Z,20.18
2023-03-10T17:02:43.588Z,20.16
2023-03-10T17:05:14.370Z,20.15
2023-03-10T17:07:55.086Z,20.16
2023-03-10T17:10:23.799Z,20.17
2023-03-10T17:12:51.679Z,20.18
2023-03-10T17:15:19.842Z,20.18
2023-03-10T17:17:47.844Z,20.19
2023-03-10T17:20:18.381Z,20.20
2023-03-10T17:22:47.792Z,20.20
2023-03-10T17:25:15.799Z,20.21
2023-03-10T17:27:43.976Z,20.21
2023-03-10T17:30:13.858Z,20.20
2023-03-10T17:32:41.884Z,20.21
2023-03-10T17:35:10.712Z,20.23
2023-03-10T17:37:38.684Z,20.22
2023-03-10T17:40:10.261Z,20.23
2023-03-10T17:42:38.236Z,20.24
2023-03-10T17:45:07.199Z,20.24
2023-03-10T17:47:36.950Z,20.22
2023-03-10T17:50:05.553Z,20.23
2023-03-10T17:52:33.592Z,20.26
2023-03-10T17:55:01.523Z,20.26
2023-03-10T17:57:30.862Z,20.27
2023-03-10T17:59:58.823Z,20.26
2023-03-10T18:02:26.918Z,20.26
2023-03-10T18:04:57.621Z,20.26
2023-03-10T18:07:25.975Z,20.30
2023-03-10T18:09:54.131Z,20.31
2023-03-10T18:12:22.076Z,20.31
2023-03-10T18:14:54.067Z,20.23
2023-03-10T18:17:22.056Z,20.25
2023-03-10T18:19:52.201Z,20.27
2023-03-10T18:22:20.143Z,20.26
2023-03-10T18:24:48.411Z,20.27
2023-03-10T18:27:16.509Z,20.29
2023-03-10T18:29:44.404Z,20.30
2023-03-10T18:32:13.821Z,20.29
2023-03-10T18:34:41.771Z,20.31
2023-03-10T18:37:09.745Z,20.30
2023-03-10T18:39:41.351Z,20.33
2023-03-10T18:42:09.328Z,20.34
2023-03-10T18:44:37.258Z,20.34
2023-03-10T18:47:05.502Z,20.34
2023-03-10T18:49:37.819Z,20.35
2023-03-10T18:52:06.218Z,20.36
2023-03-10T18:54:34.196Z,20.36
2023-03-10T18:57:02.218Z,20.37
2023-03-10T18:59:30.231Z,20.37
2023-03-10T19:01:59.156Z,20.39
2023-03-10T19:04:27.357Z,20.39
2023-03-10T19:06:56.899Z,20.39
2023-03-10T19:09:27.758Z,20.40
2023-03-10T19:11:55.849Z,20.41
2023-03-10T19:14:23.782Z,20.40
2023-03-10T19:16:51.847Z,20.41
2023-03-10T19:19:19.885Z,20.40
2023-03-10T19:21:47.853Z,20.42
2023-03-10T19:24:17.297Z,20.41
2023-03-10T19:26:46.912Z,20.42
2023-03-10T19:29:14.896Z,20.44
2023-03-10T19:31:42.920Z,20.44
2023-03-10T19:34:12.079Z,20.45
2023-03-10T19:36:40.026Z,20.46
2023-03-10T19:39:07.952Z,20.47
2023-03-10T19:41:37.264Z,20.48
2023-03-10T19:44:05.354Z,20.47
2023-03-10T19:46:33.323Z,20.48
2023-03-10T19:49:01.375Z,20.49
2023-03-10T19:51:30.069Z,20.49
2023-03-10T19:53:58.591Z,20.49
2023-03-10T19:56:26.568Z,20.51
2023-03-10T19:58:56.331Z,20.49
2023-03-10T20:01:27.020Z,20.49
2023-03-10T20:03:57.675Z,20.50
2023-03-10T20:06:25.873Z,20.50
2023-03-10T20:08:54.488Z,20.51
2023-03-10T20:11:24.993Z,20.51
2023-03-10T20:13:55.188Z,20.51
2023-03-10T20:16:24.132Z,20.53
2023-03-10T20:18:52.289Z,20.53
2023-03-10T20:21:20.212Z,20.53
2023-03-10T20:23:48.651Z,20.54
2023-03-10T20:26:17.613Z,20.54
2023-03-10T20:28:46.070Z,20.57
2023-03-10T20:31:18.411Z,20.56
2023-03-10T20:33:46.360Z,20.55
2023-03-10T20:36:16.062Z,20.59
2023-03-10T20:38:44.782Z,20.61
2023-03-10T20:41:13.707Z,20.60
2023-03-10T20:43:42.151Z,20.60
2023-03-10T20:46:11.034Z,20.59
2023-03-10T20:48:40.410Z,20.60
2023-03-10T20:51:08.404Z,20.60
2023-03-10T20:53:37.261Z,20.61
2023-03-10T20:56:09.646Z,20.61
2023-03-10T20:58:37.895Z,20.61
2023-03-10T21:01:06.609Z,20.60
2023-03-10T21:03:37.219Z,20.62
2023-03-10T21:06:06.857Z,20.63
2023-03-10T21:08:35.064Z,20.63
2023-03-10T21:11:05.577Z,20.64
2023-03-10T21:13:33.690Z,20.63
2023-03-10T21:16:01.632Z,20.64
2023-03-10T21:18:29.603Z,20.62
2023-03-10T21:20:57.519Z,20.65
2023-03-10T21:23:26.817Z,20.68
2023-03-10T21:25:54.734Z,20.72
2023-03-10T21:28:22.736Z,20.71
2023-03-10T21:30:53.342Z,20.72
2023-03-10T21:33:23.050Z,20.72
2023-03-10T21:35:51.070Z,20.72
2023-03-10T21:38:19.033Z,20.71
2023-03-10T21:40:48.358Z,20.72
2023-03-10T21:43:18.501Z,20.72
2023-03-10T21:45:46.589Z,20.72
2023-03-10T21:48:14.621Z,20.74
2023-03-10T21:50:43.146Z,20.72
2023-03-10T21:53:11.176Z,20.72
2023-03-10T21:55:41.995Z,20.72
2023-03-10T21:58:11.327Z,20.72
2023-03-10T22:00:39.345Z,20.72
2023-03-10T22:03:07.673Z,20.72
2023-03-10T22:05:35.614Z,20.73
2023-03-10T22:08:03.607Z,20.72
2023-03-10T22:10:32.171Z,20.71
2023-03-10T22:13:03.363Z,20.71
2023-03-10T22:15:32.777Z,20.70
2023-03-10T22:18:00.717Z,20.71
2023-03-10T22:20:32.043Z,20.71
2023-03-10T22:23:00.129Z,20.69
2023-03-10T22:25:28.143Z,20.69
2023-03-10T22:27:57.192Z,20.69
2023-03-10T22:30:26.720Z,20.68
2023-03-10T22:32:59.286Z,20.68
2023-03-10T22:35:27.263Z,20.67
2023-03-10T22:37:55.275Z,20.69
2023-03-10T22:40:25.689Z,20.69
2023-03-10T22:42:54.615Z,20.65
2023-03-10T22:45:25.390Z,20.67
2023-03-10T22:47:58.470Z,20.67
2023-03-10T22:50:30.190Z,20.65
2023-03-10T22:52:59.656Z,20.65
2023-03-10T22:55:34.808Z,20.61
2023-03-10T22:58:03.337Z,20.66
2023-03-10T23:00:31.887Z,20.66
2023-03-10T23:03:00.078Z,20.66
2023-03-10T23:05:29.738Z,20.67
2023-03-10T23:07:58.022Z,20.68
2023-03-10T23:10:27.788Z,20.66
2023-03-10T23:12:56.422Z,20.64
2023-03-10T23:15:27.690Z,20.64
2023-03-10T23:17:58.874Z,20.63
2023-03-10T23:20:30.853Z,20.61
2023-03-10T23:23:01.230Z,20.60
2023-03-10T23:25:31.936Z,20.61
2023-03-10T23:27:59.954Z,20.62
2023-03-10T23:30:29.052Z,20.65
2023-03-10T23:32:57.608Z,20.63
2023-03-10T23:35:27.693Z,20.63
2023-03-10T23:37:57.124Z,20.60
2023-03-10T23:40:27.197Z,20.57
2023-03-10T23:42:56.069Z,20.57
2023-03-10T23:45:25.676Z,20.56
2023-03-10T23:47:55.552Z,20.56
2023-03-10T23:50:28.851Z,20.54
2023-03-10T23:52:58.556Z,20.51
2023-03-10T23:55:29.670Z,20.52
2023-03-10T23:57:57.660Z,20.51
